This is the latest recevied weather packets stored in our database for station/object OE3XAM-13. If no packets are shown the sender has not sent any weather packets the latest 1 day(s).
| Time | Temp. | Humidity | Pressure | Rain* | Wind** | Luminosity | Snow |
|---|---|---|---|---|---|---|---|
| 1777974088 | 25.56° C | 35% | 972 hPa | 0 mm | 0.45 m/s, 0° | - | - |
| 1777972288 | 23.89° C | 37% | 972 hPa | 0 mm | 0 m/s | - | - |
| 1777970488 | 22.78° C | 41% | 972 hPa | 0 mm | 0.89 m/s, 0° | - | - |
| 1777968697 | 21.11° C | 45% | 973 hPa | 0 mm | 0 m/s | - | - |
| 1777966888 | 19.44° C | 50% | 973 hPa | 0 mm | 0 m/s | - | - |
| 1777965088 | 17.22° C | 59% | 972 hPa | 0 mm | 0 m/s | - | - |
| 1777963288 | 15° C | 68% | 973 hPa | 0 mm | 0 m/s | - | - |
| 1777961488 | 13.33° C | 73% | 973 hPa | 0 mm | 0 m/s | - | - |
| 1777959688 | 11.11° C | 78% | 973 hPa | 0 mm | 0.45 m/s, 0° | - | - |
| 1777957888 | 10.56° C | 78% | 973 hPa | 0 mm | 0.45 m/s, 0° | - | - |
| 1777956088 | 10° C | 78% | 974 hPa | 0 mm | 0 m/s | - | - |
| 1777954288 | 10° C | 77% | 973 hPa | 0 mm | 0 m/s | - | - |
| 1777952488 | 10° C | 77% | 973 hPa | 0 mm | 0.89 m/s, 0° | - | - |
| 1777950688 | 10.56° C | 75% | 973 hPa | 0 mm | 0.45 m/s, 0° | - | - |
| 1777948888 | 11.11° C | 74% | 974 hPa | 0 mm | 1.34 m/s, 0° | - | - |
| 1777947088 | 11.67° C | 73% | 973 hPa | 0 mm | 0.89 m/s, 0° | - | - |
| 1777945288 | 12.22° C | 71% | 973 hPa | 0 mm | 0.45 m/s, 0° | - | - |
| 1777943488 | 12.78° C | 69% | 973 hPa | 0 mm | 0.45 m/s, 0° | - | - |
| 1777941688 | 13.33° C | 66% | 973 hPa | 0 mm | 0.45 m/s, 0° | - | - |
| 1777939888 | 13.33° C | 64% | 974 hPa | 0 mm | 0 m/s | - | - |
| 1777938088 | 13.89° C | 61% | 974 hPa | 0 mm | 0.45 m/s, 0° | - | - |
| 1777936288 | 13.89° C | 59% | 974 hPa | 0 mm | 0.89 m/s, 0° | - | - |
| 1777934488 | 13.89° C | 59% | 974 hPa | 0 mm | 0 m/s | - | - |
| 1777932688 | 14.44° C | 56% | 975 hPa | 0 mm | 0 m/s | - | - |
* Rain latest hour (hover to see other rain measurements)
** Current wind speed in m/s (hover to see current wind gust speed)